To NAV CANADA Home Page Login to a new session Search on AWWS site Feedback and Comments Disclaimer Vers la page française équivalente Tips FAQ What's new on the site To the Forecasts and Observations / NOTAM section To "File a Flight Plan" website Publications and other links Update of the User's profile FIC Telephone Numbers My Weather Data Folder Route Weather Data Regional Weather Data Local Weather Data To the Forecasts and Observations / NOTAM section
Request Generated 07/07/2015 at 13:23:40 UTC . Weather information available at that time is displayed.

METAR/TAF

If you find any discrepancies between the coded METAR/TAF and the plain language METAR/TAF please use the coded METAR/TAF. LWIS bulletins are not decoded in plain language.

VANCOUVER/VANCOUVER INTL/BC    

METAR CYVR 071300Z 10007KT 15SM SKC 15/13 A3002 RMK FU6 SLP166=
METAR
LOCATION
CYVR - VANCOUVER/VANCOUVER INTL/BC
DATE - TIME
07 JULY 2015 - 1300 UTC
WIND
100 TRUE @ 7  KNOTS
VISIBILITY
15 STAT.  MILES
RUNWAY VISUAL RANGE
WEATHER
CLOUDINESS
CLEAR SKY
TEMP / DEWPOINT
15 C / 13 C
ALTIMETER
30.02 IN HG
RECENT WEATHER
WIND SHEAR

METAR CYVR 071200Z 10007KT 15SM SKC 16/13 A3001 RMK FU5 SLP161=
METAR
LOCATION
CYVR - VANCOUVER/VANCOUVER INTL/BC
DATE - TIME
07 JULY 2015 - 1200 UTC
WIND
100 TRUE @ 7  KNOTS
VISIBILITY
15 STAT.  MILES
RUNWAY VISUAL RANGE
WEATHER
CLOUDINESS
CLEAR SKY
TEMP / DEWPOINT
16 C / 13 C
ALTIMETER
30.01 IN HG
RECENT WEATHER
WIND SHEAR

METAR CYVR 071100Z 12004KT 12SM BKN120 15/12 A3000 RMK FU6AS1 SLP157=
METAR
LOCATION
CYVR - VANCOUVER/VANCOUVER INTL/BC
DATE - TIME
07 JULY 2015 - 1100 UTC
WIND
120 TRUE @ 4  KNOTS
VISIBILITY
12 STAT.  MILES
RUNWAY VISUAL RANGE
WEATHER
CLOUDINESS
BROKEN CLOUDS (5/8 - 7/8) 12000  FT
TEMP / DEWPOINT
15 C / 12 C
ALTIMETER
30.00 IN HG
RECENT WEATHER
WIND SHEAR

TAF CYVR 071138Z 0712/0818 10008KT P6SM FEW030 TEMPO 0712/0805 4SM FU BECMG 0717/0719 18010KT BECMG 0719/0721 24008KT FM080500 10008KT P6SM SKC TEMPO 0805/0818 3SM FU RMK NXT FCST BY 071500Z=
TAF
LOCATION

CYVR - VANCOUVER/VANCOUVER INTL/BC
VALIDITY [UTC]
07 JUL - 1138 to
08 JUL - 1800
 
TIMES
[UTC]
WIND
[DEGREES TRUE]
VISIBILITY
[STAT. MILES]
WEATHER
CLOUDINESS
[FEET AGL]
 
07 JUL - 1200 to
08 JUL - 0500
100 @ 8 KNOTS
6+
NIL
3000 FEW
TEMPORARY CHANGES
07 JUL - 1200 to
08 JUL - 0500
 
4
SMOKE
 
BECOMING
07 JUL - 1700 to
07 JUL - 1900
180 @ 10 KNOTS
 
 
 
BECOMING
07 JUL - 1900 to
07 JUL - 2100
240 @ 8 KNOTS
 
 
 
 
08 JUL - 0500 to
08 JUL - 1800
100 @ 8 KNOTS
6+
NIL
CLEAR SKY
TEMPORARY CHANGES
08 JUL - 0500 to
08 JUL - 1800
 
3
SMOKE
 
REMARKS
THE NEXT FORECAST WILL BE ISSUED BY 1500 UTC ON DAY 07


Your time UTC time
Weather data provided by Environment Canada and NAV CANADA